createdAt,value
2022-11-16T05:00:20.677Z,7.62
2022-11-16T05:03:24.395Z,4.43
2022-11-16T05:06:26.524Z,6.22
2022-11-16T05:09:29.137Z,6.25
2022-11-16T05:12:31.723Z,6.40
2022-11-16T05:15:34.620Z,6.35
2022-11-16T05:18:37.194Z,7.53
2022-11-16T05:21:40.117Z,6.90
2022-11-16T05:24:44.101Z,5.50
2022-11-16T05:27:46.475Z,7.20
2022-11-16T05:30:48.528Z,5.80
2022-11-16T05:33:52.154Z,7.30
2022-11-16T05:36:55.568Z,6.82
2022-11-16T05:39:58.004Z,8.10
2022-11-16T05:43:01.923Z,4.97
2022-11-16T05:46:05.511Z,8.02
2022-11-16T05:49:08.332Z,6.10
2022-11-16T05:52:11.122Z,4.53
2022-11-16T05:55:13.697Z,4.75
2022-11-16T05:58:16.398Z,6.65
2022-11-16T06:01:18.490Z,7.35
2022-11-16T06:04:24.235Z,7.05
2022-11-16T06:07:26.839Z,7.95
2022-11-16T06:10:29.408Z,3.70
2022-11-16T06:13:33.101Z,5.60
2022-11-16T06:16:35.817Z,6.15
2022-11-16T06:19:38.229Z,4.35
2022-11-16T06:22:40.639Z,8.10
2022-11-16T06:25:42.903Z,8.32
2022-11-16T06:28:45.645Z,5.62
2022-11-16T06:31:48.228Z,5.80
2022-11-16T06:34:51.233Z,5.50
2022-11-16T06:37:53.331Z,5.15
2022-11-16T06:40:57.809Z,7.20
2022-11-16T06:44:01.019Z,5.37
2022-11-16T06:47:04.844Z,6.07
2022-11-16T06:50:08.781Z,4.60
2022-11-16T06:53:11.214Z,6.30
2022-11-16T06:56:15.487Z,7.05
2022-11-16T06:59:17.981Z,3.90
2022-11-16T07:02:22.723Z,6.93
2022-11-16T07:05:25.105Z,8.07
2022-11-16T07:08:29.515Z,8.30
2022-11-16T07:11:31.984Z,7.47
2022-11-16T07:14:34.282Z,6.50
2022-11-16T07:17:38.184Z,5.47
2022-11-16T07:20:40.299Z,5.07
2022-11-16T07:23:43.681Z,6.78
2022-11-16T07:26:46.106Z,9.73
2022-11-16T07:29:57.516Z,6.45
2022-11-16T07:33:04.514Z,9.63
2022-11-16T07:36:13.294Z,9.27
2022-11-16T07:39:15.680Z,7.97
2022-11-16T07:42:18.777Z,6.35
2022-11-16T07:45:21.961Z,8.73
2022-11-16T07:48:24.847Z,8.95
2022-11-16T07:51:28.862Z,4.87
2022-11-16T07:54:33.333Z,5.75
2022-11-16T07:57:35.868Z,7.60
2022-11-16T08:00:38.643Z,10.18
2022-11-16T08:03:43.069Z,6.05
2022-11-16T08:06:46.819Z,7.28
2022-11-16T08:09:50.128Z,5.90
2022-11-16T08:12:52.589Z,5.53
2022-11-16T08:15:55.208Z,4.53
2022-11-16T08:18:57.588Z,9.00
2022-11-16T08:22:00.245Z,9.35
2022-11-16T08:25:04.085Z,8.65
2022-11-16T08:28:06.616Z,6.90
2022-11-16T08:31:12.938Z,8.32
2022-11-16T08:34:16.417Z,7.30
2022-11-16T08:37:18.900Z,8.43
2022-11-16T08:40:22.697Z,6.78
2022-11-16T08:43:24.995Z,5.72
2022-11-16T08:46:27.880Z,6.60
2022-11-16T08:49:30.713Z,6.05
2022-11-16T08:52:33.402Z,7.60
2022-11-16T08:55:36.036Z,7.22
2022-11-16T08:58:39.248Z,6.07
2022-11-16T09:01:41.498Z,6.87
2022-11-16T09:04:43.888Z,8.98
2022-11-16T09:07:46.064Z,8.48
2022-11-16T09:10:48.402Z,8.27
2022-11-16T09:13:53.186Z,8.35
2022-11-16T09:16:56.055Z,9.02
2022-11-16T09:19:58.377Z,7.95
2022-11-16T09:23:00.704Z,9.85
2022-11-16T09:26:05.383Z,9.27
2022-11-16T09:29:11.339Z,9.77
2022-11-16T09:32:13.377Z,5.78
2022-11-16T09:35:17.264Z,8.68
2022-11-16T09:38:26.998Z,7.35
2022-11-16T09:42:32.759Z,6.32
2022-11-16T09:45:54.233Z,7.32
2022-11-16T09:49:00.205Z,7.15
2022-11-16T09:52:07.038Z,5.25
2022-11-16T09:55:38.574Z,6.55
2022-11-16T09:59:04.013Z,5.95
2022-11-16T10:02:19.404Z,6.12
2022-11-16T10:05:24.122Z,9.20
2022-11-16T10:08:39.995Z,8.48
2022-11-16T10:12:13.428Z,8.73
2022-11-16T10:15:52.684Z,7.20
2022-11-16T10:19:10.030Z,7.25
2022-11-16T10:22:52.402Z,8.45
2022-11-16T10:26:20.452Z,7.07
2022-11-16T10:29:22.468Z,6.77
2022-11-16T10:32:33.193Z,10.43
2022-11-16T10:35:42.737Z,7.18
2022-11-16T10:38:45.347Z,6.82
2022-11-16T10:41:52.756Z,8.55
2022-11-16T10:48:31.423Z,5.35
2022-11-16T10:51:33.806Z,6.60
2022-11-16T10:54:38.892Z,8.43
2022-11-16T10:57:58.747Z,8.65
2022-11-16T11:01:01.134Z,6.93
2022-11-16T11:04:22.117Z,7.62
2022-11-16T11:07:32.633Z,8.10
2022-11-16T11:10:38.705Z,9.27
2022-11-16T11:13:40.861Z,6.90
2022-11-16T11:16:43.165Z,5.95
2022-11-16T11:19:45.319Z,7.97
2022-11-16T11:23:04.545Z,6.60
2022-11-16T11:26:10.081Z,7.62
2022-11-16T11:29:34.988Z,6.10
2022-11-16T11:32:40.093Z,7.75
2022-11-16T11:35:42.772Z,4.93
2022-11-16T11:39:01.917Z,7.78
2022-11-16T11:42:13.309Z,7.62
2022-11-16T11:45:15.533Z,7.03
2022-11-16T11:48:21.009Z,8.02
2022-11-16T11:51:33.550Z,7.87
2022-11-16T11:54:45.854Z,7.57
2022-11-16T11:57:52.956Z,5.28
2022-11-16T12:01:26.219Z,4.72
2022-11-16T12:04:34.421Z,5.12
2022-11-16T12:07:51.506Z,5.87
2022-11-16T12:11:17.138Z,6.90
2022-11-16T12:14:40.853Z,3.90
2022-11-16T12:18:00.171Z,6.93
2022-11-16T12:21:05.646Z,9.65
2022-11-16T12:24:44.918Z,6.05
2022-11-16T12:28:08.702Z,6.97
2022-11-16T12:31:33.712Z,5.15
2022-11-16T12:34:55.575Z,5.30
2022-11-16T12:38:20.533Z,7.90
2022-11-16T12:41:42.160Z,4.12
2022-11-16T12:44:50.510Z,5.35
2022-11-16T12:48:30.084Z,5.03
2022-11-16T12:51:47.426Z,5.60
2022-11-16T12:55:26.484Z,6.15
2022-11-16T12:58:32.362Z,5.75
2022-11-16T13:02:18.978Z,5.15
2022-11-16T13:05:25.061Z,5.95
2022-11-16T13:08:39.496Z,5.43
2022-11-16T13:11:52.687Z,4.78
2022-11-16T13:14:57.231Z,7.15
2022-11-16T13:18:03.670Z,4.60
2022-11-16T13:21:11.085Z,3.55
2022-11-16T13:27:48.035Z,3.03
2022-11-16T13:31:04.353Z,2.15
2022-11-16T13:34:14.676Z,3.40
2022-11-16T13:37:39.194Z,7.40
2022-11-16T13:40:41.598Z,6.03
2022-11-16T13:43:50.200Z,5.03
2022-11-16T13:46:56.644Z,4.20
2022-11-16T13:50:02.037Z,3.45
2022-11-16T13:56:49.508Z,3.62
2022-11-16T14:00:00.712Z,2.83
2022-11-16T14:03:12.057Z,4.37
2022-11-16T14:06:20.264Z,5.28
2022-11-16T14:09:45.411Z,5.25
2022-11-16T14:12:53.277Z,3.10
2022-11-16T14:16:20.431Z,2.80
2022-11-16T14:19:45.238Z,5.37
2022-11-16T14:23:09.258Z,2.53
2022-11-16T14:26:58.206Z,3.85
2022-11-16T14:30:23.166Z,3.05
2022-11-16T14:33:33.994Z,5.32
2022-11-16T14:36:38.726Z,4.03
2022-11-16T14:39:44.856Z,2.20
2022-11-16T14:43:15.996Z,2.45
2022-11-16T14:46:23.667Z,2.03
2022-11-16T14:49:27.909Z,4.28
2022-11-16T14:52:37.617Z,4.32
2022-11-16T14:55:45.881Z,3.20
2022-11-16T14:58:56.779Z,4.05
2022-11-16T15:02:04.625Z,4.00
2022-11-16T15:05:07.326Z,3.17
2022-11-16T15:08:28.989Z,2.53
2022-11-16T15:11:52.416Z,2.90
2022-11-16T15:14:57.950Z,3.92
2022-11-16T15:18:00.183Z,3.15
2022-11-16T15:21:02.276Z,4.28
2022-11-16T15:27:41.868Z,3.65
2022-11-16T15:30:50.812Z,4.40
2022-11-16T15:33:52.857Z,4.00
2022-11-16T15:36:55.150Z,4.70
2022-11-16T15:39:59.005Z,2.55
2022-11-16T15:43:04.678Z,4.55
2022-11-16T15:46:07.549Z,4.50
2022-11-16T15:49:26.553Z,2.92
2022-11-16T15:52:43.418Z,3.42
2022-11-16T15:55:49.971Z,3.17
2022-11-16T15:58:57.992Z,3.28
2022-11-16T16:02:00.567Z,1.45
2022-11-16T16:05:03.114Z,4.05
2022-11-16T16:08:06.300Z,4.57
2022-11-16T16:11:16.313Z,4.28
2022-11-16T16:14:36.503Z,3.72
2022-11-16T16:17:44.690Z,3.15
2022-11-16T16:20:48.899Z,3.03
2022-11-16T16:23:56.222Z,2.97
2022-11-16T16:26:58.308Z,5.15
2022-11-16T16:30:04.794Z,3.30
2022-11-16T16:33:06.848Z,2.17
2022-11-16T16:36:11.483Z,4.80
2022-11-16T16:39:13.540Z,2.25
